Terminal Aerodrome Forecast
Issued by NWS

Home | Current Version | Previous Version | Text Only | Print | Product List | Glossary On
Versions: 1 2 3 4 5 6 7 8 9 10 11 12 13 14 15 16 17 18
000
FTUS42 KMLB 022331
TAFLEE
TAF
KLEE 022331Z 0300/0324 20008KT P6SM SCT120 OVC250
     FM031400 22012KT P6SM SCT040 OVC120
     FM031700 24015G23KT P6SM VCTS SCT040CB BKN080
      TEMPO 0318/0321 3SM TSRA BKN020CB OVC040
     FM032200 24011KT P6SM SCT040 OVC080=

USA.gov is the U.S. government's official web portal to all federal, state and local government web resources and services.